sensor_id;sensor_type;location;lat;lon;timestamp;temperature;humidity
16966;DHT22;8599;47.852;12.070;2022-10-24T00:00:15;16.00;99.90
16966;DHT22;8599;47.852;12.070;2022-10-24T00:02:42;16.00;99.90
16966;DHT22;8599;47.852;12.070;2022-10-24T00:05:11;16.00;99.90
16966;DHT22;8599;47.852;12.070;2022-10-24T00:07:38;15.90;99.90
16966;DHT22;8599;47.852;12.070;2022-10-24T00:10:07;15.90;99.90
16966;DHT22;8599;47.852;12.070;2022-10-24T00:12:34;15.90;99.90
16966;DHT22;8599;47.852;12.070;2022-10-24T00:15:02;15.80;99.90
16966;DHT22;8599;47.852;12.070;2022-10-24T00:17:29;15.80;99.90
16966;DHT22;8599;47.852;12.070;2022-10-24T00:19:56;15.80;99.90
16966;DHT22;8599;47.852;12.070;2022-10-24T00:22:23;15.70;99.90
16966;DHT22;8599;47.852;12.070;2022-10-24T00:24:50;15.70;99.90
16966;DHT22;8599;47.852;12.070;2022-10-24T00:27:18;15.80;99.90
16966;DHT22;8599;47.852;12.070;2022-10-24T00:29:46;15.70;99.90
16966;DHT22;8599;47.852;12.070;2022-10-24T00:32:12;15.70;99.90
16966;DHT22;8599;47.852;12.070;2022-10-24T00:34:40;15.80;99.90
16966;DHT22;8599;47.852;12.070;2022-10-24T00:37:07;15.80;99.90
16966;DHT22;8599;47.852;12.070;2022-10-24T00:39:34;15.80;99.90
16966;DHT22;8599;47.852;12.070;2022-10-24T00:42:01;15.80;99.90
16966;DHT22;8599;47.852;12.070;2022-10-24T00:44:32;15.70;99.90
16966;DHT22;8599;47.852;12.070;2022-10-24T00:47:04;15.70;99.90
16966;DHT22;8599;47.852;12.070;2022-10-24T00:49:39;15.60;99.90
16966;DHT22;8599;47.852;12.070;2022-10-24T00:52:09;15.60;99.90
16966;DHT22;8599;47.852;12.070;2022-10-24T00:54:38;15.50;99.90
16966;DHT22;8599;47.852;12.070;2022-10-24T00:57:09;15.60;99.90
16966;DHT22;8599;47.852;12.070;2022-10-24T00:59:40;15.50;99.90
16966;DHT22;8599;47.852;12.070;2022-10-24T01:02:08;15.50;99.90
16966;DHT22;8599;47.852;12.070;2022-10-24T01:04:36;15.50;99.90
16966;DHT22;8599;47.852;12.070;2022-10-24T01:07:14;15.50;99.90
16966;DHT22;8599;47.852;12.070;2022-10-24T01:09:51;15.40;99.90
16966;DHT22;8599;47.852;12.070;2022-10-24T01:12:29;15.40;99.90
16966;DHT22;8599;47.852;12.070;2022-10-24T01:15:04;15.40;99.90
16966;DHT22;8599;47.852;12.070;2022-10-24T01:17:40;15.40;99.90
16966;DHT22;8599;47.852;12.070;2022-10-24T01:20:28;15.40;99.90
16966;DHT22;8599;47.852;12.070;2022-10-24T01:25:58;15.50;99.90
16966;DHT22;8599;47.852;12.070;2022-10-24T01:28:33;15.40;99.90
16966;DHT22;8599;47.852;12.070;2022-10-24T01:31:06;15.50;99.90
16966;DHT22;8599;47.852;12.070;2022-10-24T01:33:35;15.60;99.90
16966;DHT22;8599;47.852;12.070;2022-10-24T01:36:07;15.60;99.90
16966;DHT22;8599;47.852;12.070;2022-10-24T01:38:39;15.70;99.90
16966;DHT22;8599;47.852;12.070;2022-10-24T01:41:08;15.80;99.90
16966;DHT22;8599;47.852;12.070;2022-10-24T01:43:40;15.90;99.90
16966;DHT22;8599;47.852;12.070;2022-10-24T01:46:11;16.00;99.90
16966;DHT22;8599;47.852;12.070;2022-10-24T01:48:41;16.10;99.90
16966;DHT22;8599;47.852;12.070;2022-10-24T01:51:11;16.20;99.90
16966;DHT22;8599;47.852;12.070;2022-10-24T01:53:40;16.20;99.90
16966;DHT22;8599;47.852;12.070;2022-10-24T01:56:08;16.10;99.90
16966;DHT22;8599;47.852;12.070;2022-10-24T01:58:35;16.00;99.90
16966;DHT22;8599;47.852;12.070;2022-10-24T02:01:04;16.00;99.90
16966;DHT22;8599;47.852;12.070;2022-10-24T02:03:36;16.00;99.90
16966;DHT22;8599;47.852;12.070;2022-10-24T02:06:07;16.00;99.90
16966;DHT22;8599;47.852;12.070;2022-10-24T02:08:39;16.00;99.90
16966;DHT22;8599;47.852;12.070;2022-10-24T02:11:08;15.90;99.90
16966;DHT22;8599;47.852;12.070;2022-10-24T02:13:40;15.90;99.90
16966;DHT22;8599;47.852;12.070;2022-10-24T02:16:10;15.80;99.90
16966;DHT22;8599;47.852;12.070;2022-10-24T02:18:39;15.80;99.90
16966;DHT22;8599;47.852;12.070;2022-10-24T02:21:15;15.70;99.90
16966;DHT22;8599;47.852;12.070;2022-10-24T02:23:48;15.70;99.90
16966;DHT22;8599;47.852;12.070;2022-10-24T02:26:23;15.70;99.90
16966;DHT22;8599;47.852;12.070;2022-10-24T02:28:54;15.70;99.90
16966;DHT22;8599;47.852;12.070;2022-10-24T02:31:24;15.60;99.90
16966;DHT22;8599;47.852;12.070;2022-10-24T02:33:55;15.60;99.90
16966;DHT22;8599;47.852;12.070;2022-10-24T02:36:26;15.60;99.90
16966;DHT22;8599;47.852;12.070;2022-10-24T02:38:55;15.60;99.90
16966;DHT22;8599;47.852;12.070;2022-10-24T02:41:27;15.50;99.90
16966;DHT22;8599;47.852;12.070;2022-10-24T02:43:56;15.60;99.90
16966;DHT22;8599;47.852;12.070;2022-10-24T02:46:23;15.50;99.90
16966;DHT22;8599;47.852;12.070;2022-10-24T02:48:56;15.50;99.90
16966;DHT22;8599;47.852;12.070;2022-10-24T02:51:27;15.40;99.90
16966;DHT22;8599;47.852;12.070;2022-10-24T02:53:55;15.50;99.90
16966;DHT22;8599;47.852;12.070;2022-10-24T02:56:22;15.50;99.90
16966;DHT22;8599;47.852;12.070;2022-10-24T02:58:49;15.50;99.90
16966;DHT22;8599;47.852;12.070;2022-10-24T03:01:16;15.40;99.90
16966;DHT22;8599;47.852;12.070;2022-10-24T03:03:43;15.30;99.90
16966;DHT22;8599;47.852;12.070;2022-10-24T03:06:11;15.30;99.90
16966;DHT22;8599;47.852;12.070;2022-10-24T03:08:38;15.40;99.90
16966;DHT22;8599;47.852;12.070;2022-10-24T03:11:05;15.20;99.90
16966;DHT22;8599;47.852;12.070;2022-10-24T03:13:32;15.20;99.90
16966;DHT22;8599;47.852;12.070;2022-10-24T03:15:59;15.20;99.90
16966;DHT22;8599;47.852;12.070;2022-10-24T03:18:26;15.10;99.90
16966;DHT22;8599;47.852;12.070;2022-10-24T03:20:53;15.00;99.90
16966;DHT22;8599;47.852;12.070;2022-10-24T03:23:21;15.10;99.90
16966;DHT22;8599;47.852;12.070;2022-10-24T03:25:50;15.00;99.90
16966;DHT22;8599;47.852;12.070;2022-10-24T03:28:16;15.00;99.90
16966;DHT22;8599;47.852;12.070;2022-10-24T03:30:43;15.00;99.90
16966;DHT22;8599;47.852;12.070;2022-10-24T03:33:10;14.90;99.90
16966;DHT22;8599;47.852;12.070;2022-10-24T03:35:37;14.90;99.90
16966;DHT22;8599;47.852;12.070;2022-10-24T03:38:04;15.00;99.90
16966;DHT22;8599;47.852;12.070;2022-10-24T03:40:34;15.00;99.90
16966;DHT22;8599;47.852;12.070;2022-10-24T03:43:01;15.00;99.90
16966;DHT22;8599;47.852;12.070;2022-10-24T03:45:28;14.90;99.90
16966;DHT22;8599;47.852;12.070;2022-10-24T03:47:55;14.90;99.90
16966;DHT22;8599;47.852;12.070;2022-10-24T03:50:21;14.90;99.90
16966;DHT22;8599;47.852;12.070;2022-10-24T03:52:48;14.90;99.90
16966;DHT22;8599;47.852;12.070;2022-10-24T03:55:15;14.80;99.90
16966;DHT22;8599;47.852;12.070;2022-10-24T03:57:43;14.80;99.90
16966;DHT22;8599;47.852;12.070;2022-10-24T04:00:10;14.90;99.90
16966;DHT22;8599;47.852;12.070;2022-10-24T04:02:37;14.80;99.90
16966;DHT22;8599;47.852;12.070;2022-10-24T04:05:05;14.80;99.90
16966;DHT22;8599;47.852;12.070;2022-10-24T04:07:32;14.70;99.90
16966;DHT22;8599;47.852;12.070;2022-10-24T04:09:58;14.70;99.90
16966;DHT22;8599;47.852;12.070;2022-10-24T04:12:25;14.70;99.90
16966;DHT22;8599;47.852;12.070;2022-10-24T04:14:54;14.70;99.90
16966;DHT22;8599;47.852;12.070;2022-10-24T04:17:20;14.70;99.90
16966;DHT22;8599;47.852;12.070;2022-10-24T04:19:47;14.70;99.90
16966;DHT22;8599;47.852;12.070;2022-10-24T04:22:14;14.70;99.90
16966;DHT22;8599;47.852;12.070;2022-10-24T04:24:41;14.60;99.90
16966;DHT22;8599;47.852;12.070;2022-10-24T04:27:08;14.60;99.90
16966;DHT22;8599;47.852;12.070;2022-10-24T04:29:35;14.70;99.90
16966;DHT22;8599;47.852;12.070;2022-10-24T04:32:04;14.70;99.90
16966;DHT22;8599;47.852;12.070;2022-10-24T04:34:33;14.70;99.90
16966;DHT22;8599;47.852;12.070;2022-10-24T04:37:00;14.70;99.90
16966;DHT22;8599;47.852;12.070;2022-10-24T04:39:27;14.70;99.90
16966;DHT22;8599;47.852;12.070;2022-10-24T04:41:53;14.70;99.90
16966;DHT22;8599;47.852;12.070;2022-10-24T04:44:20;14.70;99.90
16966;DHT22;8599;47.852;12.070;2022-10-24T04:46:48;14.70;99.90
16966;DHT22;8599;47.852;12.070;2022-10-24T04:49:16;14.70;99.90
16966;DHT22;8599;47.852;12.070;2022-10-24T04:51:43;14.80;99.90
16966;DHT22;8599;47.852;12.070;2022-10-24T04:54:10;14.90;99.90
16966;DHT22;8599;47.852;12.070;2022-10-24T04:56:36;14.90;99.90
16966;DHT22;8599;47.852;12.070;2022-10-24T04:59:04;14.80;99.90
16966;DHT22;8599;47.852;12.070;2022-10-24T05:01:31;15.00;99.90
16966;DHT22;8599;47.852;12.070;2022-10-24T05:03:58;15.00;99.90
16966;DHT22;8599;47.852;12.070;2022-10-24T05:06:26;15.00;99.90
16966;DHT22;8599;47.852;12.070;2022-10-24T05:08:53;14.90;99.90
16966;DHT22;8599;47.852;12.070;2022-10-24T05:11:19;14.90;99.90
16966;DHT22;8599;47.852;12.070;2022-10-24T05:13:46;14.80;99.90
16966;DHT22;8599;47.852;12.070;2022-10-24T05:16:13;14.90;99.90
16966;DHT22;8599;47.852;12.070;2022-10-24T05:18:40;14.80;99.90
16966;DHT22;8599;47.852;12.070;2022-10-24T05:21:07;14.70;99.90
16966;DHT22;8599;47.852;12.070;2022-10-24T05:23:35;14.70;99.90
16966;DHT22;8599;47.852;12.070;2022-10-24T05:26:02;14.70;99.90
16966;DHT22;8599;47.852;12.070;2022-10-24T05:28:29;14.60;99.90
16966;DHT22;8599;47.852;12.070;2022-10-24T05:30:56;14.50;99.90
16966;DHT22;8599;47.852;12.070;2022-10-24T05:33:23;14.60;99.90
16966;DHT22;8599;47.852;12.070;2022-10-24T05:35:50;14.60;99.90
16966;DHT22;8599;47.852;12.070;2022-10-24T05:38:17;14.50;99.90
16966;DHT22;8599;47.852;12.070;2022-10-24T05:40:45;14.50;99.90
16966;DHT22;8599;47.852;12.070;2022-10-24T05:43:13;14.50;99.90
16966;DHT22;8599;47.852;12.070;2022-10-24T05:45:40;14.50;99.90
16966;DHT22;8599;47.852;12.070;2022-10-24T05:48:07;14.50;99.90
16966;DHT22;8599;47.852;12.070;2022-10-24T05:50:34;14.50;99.90
16966;DHT22;8599;47.852;12.070;2022-10-24T05:53:01;14.50;99.90
16966;DHT22;8599;47.852;12.070;2022-10-24T05:55:28;14.50;99.90
16966;DHT22;8599;47.852;12.070;2022-10-24T05:57:57;14.50;99.90
16966;DHT22;8599;47.852;12.070;2022-10-24T06:00:24;14.50;99.90
16966;DHT22;8599;47.852;12.070;2022-10-24T06:02:51;14.50;99.90
16966;DHT22;8599;47.852;12.070;2022-10-24T06:05:18;14.50;99.90
16966;DHT22;8599;47.852;12.070;2022-10-24T06:07:45;14.50;99.90
16966;DHT22;8599;47.852;12.070;2022-10-24T06:10:13;14.50;99.90
16966;DHT22;8599;47.852;12.070;2022-10-24T06:12:40;14.40;99.90
16966;DHT22;8599;47.852;12.070;2022-10-24T06:15:10;14.50;99.90
16966;DHT22;8599;47.852;12.070;2022-10-24T06:17:37;14.50;99.90
16966;DHT22;8599;47.852;12.070;2022-10-24T06:20:05;14.50;99.90
16966;DHT22;8599;47.852;12.070;2022-10-24T06:22:32;14.40;99.90
16966;DHT22;8599;47.852;12.070;2022-10-24T06:24:58;14.50;99.90
16966;DHT22;8599;47.852;12.070;2022-10-24T06:27:26;14.50;99.90
16966;DHT22;8599;47.852;12.070;2022-10-24T06:29:53;14.50;99.90
16966;DHT22;8599;47.852;12.070;2022-10-24T06:32:21;14.50;99.90
16966;DHT22;8599;47.852;12.070;2022-10-24T06:34:49;14.50;99.90
16966;DHT22;8599;47.852;12.070;2022-10-24T06:37:16;14.50;99.90
16966;DHT22;8599;47.852;12.070;2022-10-24T06:39:43;14.50;99.90
16966;DHT22;8599;47.852;12.070;2022-10-24T06:42:10;14.50;99.90
16966;DHT22;8599;47.852;12.070;2022-10-24T06:44:36;14.60;99.90
16966;DHT22;8599;47.852;12.070;2022-10-24T06:47:04;14.60;99.90
16966;DHT22;8599;47.852;12.070;2022-10-24T06:49:32;14.60;99.90
16966;DHT22;8599;47.852;12.070;2022-10-24T06:51:59;14.70;99.90
16966;DHT22;8599;47.852;12.070;2022-10-24T06:54:26;14.70;99.90
16966;DHT22;8599;47.852;12.070;2022-10-24T06:56:53;14.70;99.90
16966;DHT22;8599;47.852;12.070;2022-10-24T06:59:19;14.70;99.90
16966;DHT22;8599;47.852;12.070;2022-10-24T07:01:46;14.70;99.90
16966;DHT22;8599;47.852;12.070;2022-10-24T07:04:13;14.80;99.90
16966;DHT22;8599;47.852;12.070;2022-10-24T07:06:41;14.80;99.90
16966;DHT22;8599;47.852;12.070;2022-10-24T07:09:10;14.80;99.90
16966;DHT22;8599;47.852;12.070;2022-10-24T07:11:37;14.80;99.90
16966;DHT22;8599;47.852;12.070;2022-10-24T07:14:03;14.80;99.90
16966;DHT22;8599;47.852;12.070;2022-10-24T07:16:31;14.80;99.90
16966;DHT22;8599;47.852;12.070;2022-10-24T07:18:57;14.80;99.90
16966;DHT22;8599;47.852;12.070;2022-10-24T07:21:27;14.80;99.90
16966;DHT22;8599;47.852;12.070;2022-10-24T07:23:56;14.90;99.90
16966;DHT22;8599;47.852;12.070;2022-10-24T07:26:24;15.00;99.90
16966;DHT22;8599;47.852;12.070;2022-10-24T07:28:53;15.00;99.90
16966;DHT22;8599;47.852;12.070;2022-10-24T07:31:22;14.90;99.90
16966;DHT22;8599;47.852;12.070;2022-10-24T07:33:49;15.00;99.90
16966;DHT22;8599;47.852;12.070;2022-10-24T07:36:19;15.00;99.90
16966;DHT22;8599;47.852;12.070;2022-10-24T07:38:46;15.00;99.90
16966;DHT22;8599;47.852;12.070;2022-10-24T07:41:14;15.00;99.90
16966;DHT22;8599;47.852;12.070;2022-10-24T07:43:41;15.10;99.90
16966;DHT22;8599;47.852;12.070;2022-10-24T07:46:10;15.10;99.90
16966;DHT22;8599;47.852;12.070;2022-10-24T07:48:37;15.10;99.90
16966;DHT22;8599;47.852;12.070;2022-10-24T07:51:06;15.10;99.90
16966;DHT22;8599;47.852;12.070;2022-10-24T07:53:34;15.10;99.90
16966;DHT22;8599;47.852;12.070;2022-10-24T07:56:01;15.10;99.90
16966;DHT22;8599;47.852;12.070;2022-10-24T07:58:31;15.20;99.90
16966;DHT22;8599;47.852;12.070;2022-10-24T08:01:02;15.20;99.90
16966;DHT22;8599;47.852;12.070;2022-10-24T08:03:29;15.20;99.90
16966;DHT22;8599;47.852;12.070;2022-10-24T08:05:56;15.30;99.90
16966;DHT22;8599;47.852;12.070;2022-10-24T08:08:23;15.30;99.90
16966;DHT22;8599;47.852;12.070;2022-10-24T08:10:50;15.40;99.90
16966;DHT22;8599;47.852;12.070;2022-10-24T08:13:17;15.40;99.90
16966;DHT22;8599;47.852;12.070;2022-10-24T08:15:45;15.40;99.90
16966;DHT22;8599;47.852;12.070;2022-10-24T08:18:11;15.50;99.90
16966;DHT22;8599;47.852;12.070;2022-10-24T08:20:38;15.40;99.90
16966;DHT22;8599;47.852;12.070;2022-10-24T08:23:05;15.40;99.90
16966;DHT22;8599;47.852;12.070;2022-10-24T08:25:32;15.40;99.90
16966;DHT22;8599;47.852;12.070;2022-10-24T08:27:59;15.50;99.90
16966;DHT22;8599;47.852;12.070;2022-10-24T08:30:26;15.50;99.90
16966;DHT22;8599;47.852;12.070;2022-10-24T08:32:54;15.50;99.90
16966;DHT22;8599;47.852;12.070;2022-10-24T08:35:21;15.50;99.90
16966;DHT22;8599;47.852;12.070;2022-10-24T08:37:47;15.50;99.90
16966;DHT22;8599;47.852;12.070;2022-10-24T08:40:17;15.50;99.90
16966;DHT22;8599;47.852;12.070;2022-10-24T08:42:45;15.60;99.90
16966;DHT22;8599;47.852;12.070;2022-10-24T08:45:26;15.50;99.90
16966;DHT22;8599;47.852;12.070;2022-10-24T08:48:00;15.50;99.90
16966;DHT22;8599;47.852;12.070;2022-10-24T08:50:32;15.50;99.90
16966;DHT22;8599;47.852;12.070;2022-10-24T08:53:03;15.50;99.90
16966;DHT22;8599;47.852;12.070;2022-10-24T08:55:36;15.50;99.90
16966;DHT22;8599;47.852;12.070;2022-10-24T08:58:04;15.50;99.90
16966;DHT22;8599;47.852;12.070;2022-10-24T09:00:36;15.50;99.90
16966;DHT22;8599;47.852;12.070;2022-10-24T09:03:12;15.50;99.90
16966;DHT22;8599;47.852;12.070;2022-10-24T09:05:43;15.40;99.90
16966;DHT22;8599;47.852;12.070;2022-10-24T09:08:19;15.40;99.90
16966;DHT22;8599;47.852;12.070;2022-10-24T09:10:50;15.50;99.90
16966;DHT22;8599;47.852;12.070;2022-10-24T09:13:19;15.40;99.90
16966;DHT22;8599;47.852;12.070;2022-10-24T09:15:49;15.40;99.90
16966;DHT22;8599;47.852;12.070;2022-10-24T09:18:22;15.30;99.90
16966;DHT22;8599;47.852;12.070;2022-10-24T09:20:50;15.30;99.90
16966;DHT22;8599;47.852;12.070;2022-10-24T09:23:18;15.30;99.90
16966;DHT22;8599;47.852;12.070;2022-10-24T09:25:48;15.40;99.90
16966;DHT22;8599;47.852;12.070;2022-10-24T09:28:16;15.40;99.90
16966;DHT22;8599;47.852;12.070;2022-10-24T09:30:43;15.40;99.90
16966;DHT22;8599;47.852;12.070;2022-10-24T09:33:23;15.40;99.90
16966;DHT22;8599;47.852;12.070;2022-10-24T09:35:51;15.40;99.90
16966;DHT22;8599;47.852;12.070;2022-10-24T09:38:31;15.40;99.90
16966;DHT22;8599;47.852;12.070;2022-10-24T09:41:01;15.40;99.90
16966;DHT22;8599;47.852;12.070;2022-10-24T09:43:38;15.40;99.90
16966;DHT22;8599;47.852;12.070;2022-10-24T09:46:12;15.40;99.90
16966;DHT22;8599;47.852;12.070;2022-10-24T09:48:53;15.40;99.90
16966;DHT22;8599;47.852;12.070;2022-10-24T09:51:24;15.40;99.90
16966;DHT22;8599;47.852;12.070;2022-10-24T09:54:23;15.40;99.90
16966;DHT22;8599;47.852;12.070;2022-10-24T09:56:54;15.40;99.90
16966;DHT22;8599;47.852;12.070;2022-10-24T09:59:30;15.40;99.90
16966;DHT22;8599;47.852;12.070;2022-10-24T10:02:14;15.40;99.90
16966;DHT22;8599;47.852;12.070;2022-10-24T10:04:46;15.30;99.90
16966;DHT22;8599;47.852;12.070;2022-10-24T10:07:15;15.30;99.90
16966;DHT22;8599;47.852;12.070;2022-10-24T10:09:48;15.30;99.90
16966;DHT22;8599;47.852;12.070;2022-10-24T10:12:25;15.50;99.90
16966;DHT22;8599;47.852;12.070;2022-10-24T10:14:52;15.50;99.90
16966;DHT22;8599;47.852;12.070;2022-10-24T10:17:21;15.50;99.90
16966;DHT22;8599;47.852;12.070;2022-10-24T10:19:51;15.40;99.90
16966;DHT22;8599;47.852;12.070;2022-10-24T10:22:23;15.40;99.90
16966;DHT22;8599;47.852;12.070;2022-10-24T10:24:50;15.40;99.90
16966;DHT22;8599;47.852;12.070;2022-10-24T10:27:31;15.50;99.90
16966;DHT22;8599;47.852;12.070;2022-10-24T10:30:15;15.40;99.90
16966;DHT22;8599;47.852;12.070;2022-10-24T10:32:49;15.40;99.90
16966;DHT22;8599;47.852;12.070;2022-10-24T10:35:25;15.50;99.90
16966;DHT22;8599;47.852;12.070;2022-10-24T10:38:00;15.40;99.90
16966;DHT22;8599;47.852;12.070;2022-10-24T10:40:31;15.40;99.90
16966;DHT22;8599;47.852;12.070;2022-10-24T10:43:12;15.40;99.90
16966;DHT22;8599;47.852;12.070;2022-10-24T10:45:46;15.50;99.90
16966;DHT22;8599;47.852;12.070;2022-10-24T10:48:24;15.50;99.90
16966;DHT22;8599;47.852;12.070;2022-10-24T10:51:01;15.40;99.90
16966;DHT22;8599;47.852;12.070;2022-10-24T10:53:38;15.50;99.90
16966;DHT22;8599;47.852;12.070;2022-10-24T10:56:17;15.50;99.90
16966;DHT22;8599;47.852;12.070;2022-10-24T10:58:52;15.50;99.90
16966;DHT22;8599;47.852;12.070;2022-10-24T11:01:26;15.50;99.90
16966;DHT22;8599;47.852;12.070;2022-10-24T11:03:58;15.50;99.90
16966;DHT22;8599;47.852;12.070;2022-10-24T11:06:37;15.50;99.90
16966;DHT22;8599;47.852;12.070;2022-10-24T11:09:21;15.50;99.90
16966;DHT22;8599;47.852;12.070;2022-10-24T11:11:54;15.50;99.90
16966;DHT22;8599;47.852;12.070;2022-10-24T11:14:27;15.50;99.90
16966;DHT22;8599;47.852;12.070;2022-10-24T11:17:00;15.40;99.90
16966;DHT22;8599;47.852;12.070;2022-10-24T11:19:32;15.50;99.90
16966;DHT22;8599;47.852;12.070;2022-10-24T11:22:03;15.50;99.90
16966;DHT22;8599;47.852;12.070;2022-10-24T11:24:36;15.50;99.90
16966;DHT22;8599;47.852;12.070;2022-10-24T11:27:09;15.40;99.90
16966;DHT22;8599;47.852;12.070;2022-10-24T11:29:44;15.50;99.90
16966;DHT22;8599;47.852;12.070;2022-10-24T11:32:18;15.50;99.90
16966;DHT22;8599;47.852;12.070;2022-10-24T11:34:51;15.50;99.90
16966;DHT22;8599;47.852;12.070;2022-10-24T11:37:26;15.50;99.90
16966;DHT22;8599;47.852;12.070;2022-10-24T11:39:58;15.50;99.90
16966;DHT22;8599;47.852;12.070;2022-10-24T11:42:31;15.50;99.90
16966;DHT22;8599;47.852;12.070;2022-10-24T11:45:03;15.40;99.90
16966;DHT22;8599;47.852;12.070;2022-10-24T11:50:31;15.30;99.90
16966;DHT22;8599;47.852;12.070;2022-10-24T11:53:05;15.30;99.90
16966;DHT22;8599;47.852;12.070;2022-10-24T11:55:38;15.40;99.90
16966;DHT22;8599;47.852;12.070;2022-10-24T11:58:11;15.40;99.90
16966;DHT22;8599;47.852;12.070;2022-10-24T12:01:04;15.30;99.90
16966;DHT22;8599;47.852;12.070;2022-10-24T12:03:56;15.40;99.90
16966;DHT22;8599;47.852;12.070;2022-10-24T12:09:39;15.40;99.90
16966;DHT22;8599;47.852;12.070;2022-10-24T12:12:35;15.40;99.90
16966;DHT22;8599;47.852;12.070;2022-10-24T12:15:25;15.50;99.90
16966;DHT22;8599;47.852;12.070;2022-10-24T12:18:03;15.50;99.90
16966;DHT22;8599;47.852;12.070;2022-10-24T12:20:31;15.50;99.90
16966;DHT22;8599;47.852;12.070;2022-10-24T12:23:00;15.50;99.90
16966;DHT22;8599;47.852;12.070;2022-10-24T12:25:31;15.40;99.90
16966;DHT22;8599;47.852;12.070;2022-10-24T12:28:01;15.40;99.90
16966;DHT22;8599;47.852;12.070;2022-10-24T12:30:30;15.40;99.90
16966;DHT22;8599;47.852;12.070;2022-10-24T12:33:08;15.40;99.90
16966;DHT22;8599;47.852;12.070;2022-10-24T12:35:49;15.40;99.90
16966;DHT22;8599;47.852;12.070;2022-10-24T12:41:42;15.40;99.90
16966;DHT22;8599;47.852;12.070;2022-10-24T12:44:39;15.40;99.90
16966;DHT22;8599;47.852;12.070;2022-10-24T12:47:26;15.30;99.90
16966;DHT22;8599;47.852;12.070;2022-10-24T12:49:53;15.30;99.90
16966;DHT22;8599;47.852;12.070;2022-10-24T12:52:49;15.30;99.90
16966;DHT22;8599;47.852;12.070;2022-10-24T12:55:29;15.20;99.90
16966;DHT22;8599;47.852;12.070;2022-10-24T12:57:58;15.30;99.90
16966;DHT22;8599;47.852;12.070;2022-10-24T13:00:27;15.30;99.90
16966;DHT22;8599;47.852;12.070;2022-10-24T13:03:04;15.20;99.90
16966;DHT22;8599;47.852;12.070;2022-10-24T13:05:44;15.20;99.90
16966;DHT22;8599;47.852;12.070;2022-10-24T13:08:27;15.10;99.90
16966;DHT22;8599;47.852;12.070;2022-10-24T13:11:09;15.10;99.90
16966;DHT22;8599;47.852;12.070;2022-10-24T13:13:52;15.20;99.90
16966;DHT22;8599;47.852;12.070;2022-10-24T13:16:31;15.20;99.90
16966;DHT22;8599;47.852;12.070;2022-10-24T13:19:07;15.20;99.90
16966;DHT22;8599;47.852;12.070;2022-10-24T13:21:43;15.10;99.90
16966;DHT22;8599;47.852;12.070;2022-10-24T13:27:25;15.20;99.90
16966;DHT22;8599;47.852;12.070;2022-10-24T13:30:23;15.00;99.90
16966;DHT22;8599;47.852;12.070;2022-10-24T13:32:50;15.00;99.90
16966;DHT22;8599;47.852;12.070;2022-10-24T13:35:22;15.00;99.90
16966;DHT22;8599;47.852;12.070;2022-10-24T13:37:50;14.90;99.90
16966;DHT22;8599;47.852;12.070;2022-10-24T13:40:27;14.90;99.90
16966;DHT22;8599;47.852;12.070;2022-10-24T13:42:56;14.90;99.90
16966;DHT22;8599;47.852;12.070;2022-10-24T13:45:28;14.90;99.90
16966;DHT22;8599;47.852;12.070;2022-10-24T13:47:59;14.90;99.90
16966;DHT22;8599;47.852;12.070;2022-10-24T13:50:28;14.80;99.90
16966;DHT22;8599;47.852;12.070;2022-10-24T13:52:58;14.80;99.90
16966;DHT22;8599;47.852;12.070;2022-10-24T13:55:30;14.70;99.90
16966;DHT22;8599;47.852;12.070;2022-10-24T13:58:00;14.70;99.90
16966;DHT22;8599;47.852;12.070;2022-10-24T14:00:30;14.70;99.90
16966;DHT22;8599;47.852;12.070;2022-10-24T14:02:58;14.70;99.90
16966;DHT22;8599;47.852;12.070;2022-10-24T14:05:32;14.70;99.90
16966;DHT22;8599;47.852;12.070;2022-10-24T14:08:00;14.70;99.90
16966;DHT22;8599;47.852;12.070;2022-10-24T14:10:27;14.70;99.90
16966;DHT22;8599;47.852;12.070;2022-10-24T14:12:55;14.70;99.90
16966;DHT22;8599;47.852;12.070;2022-10-24T14:15:24;14.70;99.90
16966;DHT22;8599;47.852;12.070;2022-10-24T14:17:56;14.60;99.90
16966;DHT22;8599;47.852;12.070;2022-10-24T14:20:26;14.60;99.90
16966;DHT22;8599;47.852;12.070;2022-10-24T14:22:53;14.60;99.90
16966;DHT22;8599;47.852;12.070;2022-10-24T14:25:31;14.60;99.90
16966;DHT22;8599;47.852;12.070;2022-10-24T14:28:01;14.60;99.90
16966;DHT22;8599;47.852;12.070;2022-10-24T14:30:29;14.50;99.90
16966;DHT22;8599;47.852;12.070;2022-10-24T14:33:19;14.50;99.90
16966;DHT22;8599;47.852;12.070;2022-10-24T14:35:46;14.50;99.90
16966;DHT22;8599;47.852;12.070;2022-10-24T14:38:15;14.50;99.90
16966;DHT22;8599;47.852;12.070;2022-10-24T14:40:44;14.50;99.90
16966;DHT22;8599;47.852;12.070;2022-10-24T14:43:13;14.50;99.90
16966;DHT22;8599;47.852;12.070;2022-10-24T14:45:41;14.50;99.90
16966;DHT22;8599;47.852;12.070;2022-10-24T14:48:19;14.50;99.90
16966;DHT22;8599;47.852;12.070;2022-10-24T14:50:49;14.50;99.90
16966;DHT22;8599;47.852;12.070;2022-10-24T14:53:22;14.50;99.90
16966;DHT22;8599;47.852;12.070;2022-10-24T14:55:50;14.40;99.90
16966;DHT22;8599;47.852;12.070;2022-10-24T14:58:22;14.30;99.90
16966;DHT22;8599;47.852;12.070;2022-10-24T15:00:50;14.30;99.90
16966;DHT22;8599;47.852;12.070;2022-10-24T15:03:18;14.20;99.90
16966;DHT22;8599;47.852;12.070;2022-10-24T15:05:54;14.30;99.90
16966;DHT22;8599;47.852;12.070;2022-10-24T15:08:27;14.30;99.90
16966;DHT22;8599;47.852;12.070;2022-10-24T15:11:14;14.20;99.90
16966;DHT22;8599;47.852;12.070;2022-10-24T15:13:46;14.20;99.90
16966;DHT22;8599;47.852;12.070;2022-10-24T15:16:26;14.10;99.90
16966;DHT22;8599;47.852;12.070;2022-10-24T15:18:56;14.10;99.90
16966;DHT22;8599;47.852;12.070;2022-10-24T15:21:25;14.00;99.90
16966;DHT22;8599;47.852;12.070;2022-10-24T15:23:54;14.00;99.90
16966;DHT22;8599;47.852;12.070;2022-10-24T15:26:26;14.00;99.90
16966;DHT22;8599;47.852;12.070;2022-10-24T15:29:03;14.00;99.90
16966;DHT22;8599;47.852;12.070;2022-10-24T15:31:32;14.00;99.90
16966;DHT22;8599;47.852;12.070;2022-10-24T15:34:01;13.90;99.90
16966;DHT22;8599;47.852;12.070;2022-10-24T15:36:29;13.90;99.90
16966;DHT22;8599;47.852;12.070;2022-10-24T15:38:58;13.80;99.90
16966;DHT22;8599;47.852;12.070;2022-10-24T15:41:25;13.80;99.90
16966;DHT22;8599;47.852;12.070;2022-10-24T15:43:53;13.70;99.90
16966;DHT22;8599;47.852;12.070;2022-10-24T15:46:19;13.70;99.90
16966;DHT22;8599;47.852;12.070;2022-10-24T15:48:47;13.80;99.90
16966;DHT22;8599;47.852;12.070;2022-10-24T15:51:18;13.70;99.90
16966;DHT22;8599;47.852;12.070;2022-10-24T15:53:46;13.70;99.90
16966;DHT22;8599;47.852;12.070;2022-10-24T15:56:13;13.60;99.90
16966;DHT22;8599;47.852;12.070;2022-10-24T15:58:41;13.60;99.90
16966;DHT22;8599;47.852;12.070;2022-10-24T16:01:18;13.60;99.90
16966;DHT22;8599;47.852;12.070;2022-10-24T16:03:45;13.50;99.90
16966;DHT22;8599;47.852;12.070;2022-10-24T16:06:12;13.60;99.90